createdAt,value
2023-06-30T00:01:49.504Z,2.78
2023-06-30T00:04:19.008Z,2.70
2023-06-30T00:06:50.570Z,3.38
2023-06-30T00:09:19.215Z,3.05
2023-06-30T00:11:47.151Z,3.30
2023-06-30T00:14:16.384Z,3.40
2023-06-30T00:19:11.995Z,2.15
2023-06-30T00:21:42.785Z,2.90
2023-06-30T00:24:11.793Z,2.25
2023-06-30T00:26:39.826Z,2.45
2023-06-30T00:29:08.034Z,2.70
2023-06-30T00:31:38.504Z,2.42
2023-06-30T00:34:06.502Z,2.45
2023-06-30T00:36:34.550Z,2.50
2023-06-30T00:39:02.502Z,2.60
2023-06-30T00:41:30.607Z,2.40
2023-06-30T00:43:59.382Z,2.87
2023-06-30T00:46:27.538Z,2.70
2023-06-30T00:48:59.315Z,2.72
2023-06-30T00:51:27.488Z,2.40
2023-06-30T00:53:57.494Z,2.90
2023-06-30T00:56:27.400Z,2.80
2023-06-30T00:58:55.536Z,2.65
2023-06-30T01:01:29.006Z,3.10
2023-06-30T01:04:10.794Z,3.08
2023-06-30T01:06:45.111Z,3.83
2023-06-30T01:09:16.973Z,3.78
2023-06-30T01:11:45.608Z,3.63
2023-06-30T01:14:14.330Z,3.60
2023-06-30T01:16:44.533Z,3.38
2023-06-30T01:19:27.073Z,3.42
2023-06-30T01:21:57.711Z,4.40
2023-06-30T01:24:28.146Z,4.13
2023-06-30T01:26:56.180Z,4.93
2023-06-30T01:29:24.566Z,4.32
2023-06-30T01:31:52.566Z,4.63
2023-06-30T01:34:21.888Z,5.03
2023-06-30T01:36:50.492Z,4.03
2023-06-30T01:39:18.473Z,3.95
2023-06-30T01:41:47.298Z,3.60
2023-06-30T01:44:15.287Z,2.70
2023-06-30T01:46:43.449Z,3.50
2023-06-30T01:49:13.302Z,3.60
2023-06-30T01:51:42.546Z,3.30
2023-06-30T01:54:10.428Z,3.33
2023-06-30T01:56:38.321Z,3.42
2023-06-30T01:59:06.167Z,3.30
2023-06-30T02:01:34.397Z,3.17
2023-06-30T02:04:02.441Z,3.90
2023-06-30T02:06:30.334Z,2.83
2023-06-30T02:08:59.580Z,3.40
2023-06-30T02:11:27.443Z,3.53
2023-06-30T02:13:55.354Z,3.40
2023-06-30T02:16:23.484Z,3.67
2023-06-30T02:18:55.843Z,3.75
2023-06-30T02:21:23.835Z,4.60
2023-06-30T02:23:51.759Z,4.97
2023-06-30T02:26:21.123Z,4.30
2023-06-30T02:28:49.014Z,4.60
2023-06-30T02:31:18.928Z,4.90
2023-06-30T02:33:46.856Z,5.90
2023-06-30T02:36:14.753Z,5.70
2023-06-30T02:38:42.604Z,5.68
2023-06-30T02:41:10.491Z,5.78
2023-06-30T02:43:39.680Z,6.05
2023-06-30T02:46:07.592Z,6.82
2023-06-30T02:48:35.527Z,5.10
2023-06-30T02:51:03.764Z,4.60
2023-06-30T02:53:32.229Z,5.47
2023-06-30T02:56:00.190Z,4.75
2023-06-30T02:58:28.287Z,4.65
2023-06-30T03:00:58.896Z,4.00
2023-06-30T03:03:26.985Z,4.68
2023-06-30T03:05:55.426Z,3.33
2023-06-30T03:08:23.754Z,3.83
2023-06-30T03:10:51.660Z,2.85
2023-06-30T03:13:19.980Z,3.50
2023-06-30T03:15:48.121Z,3.92
2023-06-30T03:18:17.682Z,3.97
2023-06-30T03:20:45.682Z,3.65
2023-06-30T03:23:14.624Z,3.53
2023-06-30T03:25:43.458Z,3.22
2023-06-30T03:28:11.703Z,3.22
2023-06-30T03:30:39.577Z,3.20
2023-06-30T03:33:07.539Z,3.38
2023-06-30T03:35:36.817Z,3.55
2023-06-30T03:40:32.541Z,3.75
2023-06-30T03:43:00.473Z,3.10
2023-06-30T03:45:28.390Z,3.20
2023-06-30T03:47:56.272Z,3.17
2023-06-30T03:50:24.355Z,3.15
2023-06-30T03:52:53.610Z,3.65
2023-06-30T03:57:49.161Z,3.35
2023-06-30T04:00:17.894Z,3.13
2023-06-30T04:02:47.798Z,3.47
2023-06-30T04:05:15.710Z,2.90
2023-06-30T04:07:43.634Z,3.55
2023-06-30T04:10:13.086Z,3.10
2023-06-30T04:12:40.946Z,2.92
2023-06-30T04:15:11.704Z,3.47
2023-06-30T04:17:39.695Z,3.03
2023-06-30T04:20:10.719Z,2.85
2023-06-30T04:22:39.428Z,4.72
2023-06-30T04:25:08.916Z,3.38
2023-06-30T04:27:38.149Z,2.92
2023-06-30T04:32:34.290Z,2.70
2023-06-30T04:35:02.205Z,3.25
2023-06-30T04:37:31.051Z,3.45
2023-06-30T04:39:59.023Z,3.08
2023-06-30T04:42:29.183Z,2.47
2023-06-30T04:44:58.412Z,2.92
2023-06-30T04:47:27.469Z,2.75
2023-06-30T04:49:55.458Z,2.85
2023-06-30T04:52:23.311Z,2.58
2023-06-30T04:54:51.250Z,2.80
2023-06-30T04:57:19.101Z,3.15
2023-06-30T04:59:46.934Z,2.72
2023-06-30T05:02:16.152Z,2.45
2023-06-30T05:07:12.122Z,3.08
2023-06-30T05:09:40.047Z,2.95
2023-06-30T05:12:08.922Z,2.63
2023-06-30T05:14:36.889Z,2.00
2023-06-30T05:17:05.144Z,2.70
2023-06-30T05:19:34.344Z,2.42
2023-06-30T05:24:29.836Z,2.72
2023-06-30T05:26:58.580Z,2.53
2023-06-30T05:29:27.708Z,2.08
2023-06-30T05:31:56.765Z,3.10
2023-06-30T05:34:24.602Z,2.78
2023-06-30T05:36:53.924Z,2.50
2023-06-30T05:39:21.732Z,2.50
2023-06-30T05:41:49.631Z,3.10
2023-06-30T05:44:17.544Z,2.63
2023-06-30T05:46:45.538Z,2.30
2023-06-30T05:49:13.606Z,3.00
2023-06-30T05:51:41.496Z,2.70
2023-06-30T05:54:11.397Z,2.20
2023-06-30T05:56:39.297Z,1.90
2023-06-30T05:59:10.705Z,2.00
2023-06-30T06:01:39.635Z,2.22
2023-06-30T06:04:11.746Z,1.98
2023-06-30T06:06:40.130Z,2.10
2023-06-30T06:09:08.167Z,2.00
2023-06-30T06:11:37.352Z,1.83
2023-06-30T06:14:05.235Z,2.22
2023-06-30T06:16:33.145Z,2.10
2023-06-30T06:19:01.005Z,1.88
2023-06-30T06:21:29.482Z,1.67
2023-06-30T06:23:57.610Z,1.80
2023-06-30T06:26:25.443Z,2.13
2023-06-30T06:28:54.638Z,1.70
2023-06-30T06:31:25.703Z,2.15
2023-06-30T06:33:55.865Z,1.88
2023-06-30T06:36:24.065Z,2.15
2023-06-30T06:38:51.921Z,2.42
2023-06-30T06:41:19.781Z,2.05
2023-06-30T06:43:47.613Z,1.80
2023-06-30T06:46:16.897Z,1.83
2023-06-30T06:48:44.870Z,1.70
2023-06-30T06:51:12.978Z,1.80
2023-06-30T06:53:40.854Z,1.88
2023-06-30T06:56:08.728Z,1.40
2023-06-30T06:58:37.451Z,2.22
2023-06-30T07:01:05.382Z,1.50
2023-06-30T07:03:35.354Z,1.80
2023-06-30T07:06:03.708Z,2.10
2023-06-30T07:08:36.086Z,1.98
2023-06-30T07:11:05.054Z,1.70
2023-06-30T07:13:32.899Z,1.65
2023-06-30T07:16:00.873Z,2.42
2023-06-30T07:18:28.814Z,1.98
2023-06-30T07:20:58.054Z,1.38
2023-06-30T07:23:27.250Z,1.85
2023-06-30T07:25:55.694Z,2.05
2023-06-30T07:28:23.562Z,1.80
2023-06-30T07:30:51.461Z,2.00
2023-06-30T07:33:19.515Z,1.50
2023-06-30T07:35:47.649Z,1.90
2023-06-30T07:38:17.064Z,1.63
2023-06-30T07:40:56.132Z,1.85
2023-06-30T07:43:25.265Z,1.70
2023-06-30T07:45:53.270Z,1.70
2023-06-30T07:48:21.375Z,1.80
2023-06-30T07:53:37.538Z,1.80
2023-06-30T07:56:05.824Z,2.10
2023-06-30T07:58:34.214Z,1.90
2023-06-30T08:01:02.095Z,1.75
2023-06-30T08:03:30.246Z,4.32
2023-06-30T08:06:00.285Z,1.75
2023-06-30T08:08:28.774Z,1.60
2023-06-30T08:10:58.122Z,1.45
2023-06-30T08:13:26.329Z,1.60
2023-06-30T08:18:32.129Z,1.45
2023-06-30T08:21:02.663Z,1.42
2023-06-30T08:23:31.097Z,1.50
2023-06-30T08:28:28.129Z,1.40
2023-06-30T08:30:56.261Z,1.70
2023-06-30T08:36:02.299Z,1.63
2023-06-30T08:38:30.467Z,1.50
2023-06-30T08:40:59.128Z,1.70
2023-06-30T08:43:30.096Z,1.55
2023-06-30T08:45:58.051Z,1.60
2023-06-30T08:48:26.678Z,1.52
2023-06-30T08:50:55.586Z,1.30
2023-06-30T08:53:25.164Z,1.42
2023-06-30T08:55:53.069Z,1.45
2023-06-30T08:58:26.568Z,1.30
2023-06-30T09:00:57.310Z,1.52
2023-06-30T09:03:25.946Z,1.55
2023-06-30T09:05:57.087Z,1.50
2023-06-30T09:08:26.096Z,1.48
2023-06-30T09:10:56.077Z,1.33
2023-06-30T09:13:25.908Z,1.40
2023-06-30T09:15:59.680Z,1.25
2023-06-30T09:18:28.045Z,1.63
2023-06-30T09:23:23.896Z,1.40
2023-06-30T09:25:54.323Z,1.40
2023-06-30T09:28:22.250Z,1.40
2023-06-30T09:30:50.193Z,1.23
2023-06-30T09:33:21.746Z,1.25
2023-06-30T09:35:50.223Z,1.27
2023-06-30T09:38:19.877Z,1.42
2023-06-30T09:40:49.272Z,1.20
2023-06-30T09:43:19.344Z,1.08
2023-06-30T09:45:49.577Z,1.33
2023-06-30T09:48:19.416Z,1.35
2023-06-30T09:50:47.253Z,1.10
2023-06-30T09:53:20.707Z,1.10
2023-06-30T09:55:50.605Z,1.40
2023-06-30T09:58:19.934Z,1.17
2023-06-30T10:00:49.320Z,1.38
2023-06-30T10:03:18.371Z,1.40
2023-06-30T10:05:50.354Z,1.50
2023-06-30T10:08:18.798Z,1.35
2023-06-30T10:10:46.790Z,1.60
2023-06-30T10:13:17.818Z,1.75
2023-06-30T10:15:46.698Z,1.20
2023-06-30T10:18:17.966Z,1.52
2023-06-30T10:20:49.577Z,1.70
2023-06-30T10:23:21.640Z,1.65
2023-06-30T10:25:51.937Z,1.95
2023-06-30T10:28:20.801Z,1.45
2023-06-30T10:30:52.123Z,1.70
2023-06-30T10:33:20.253Z,1.33
2023-06-30T10:35:49.655Z,1.80
2023-06-30T10:38:19.283Z,1.60
2023-06-30T10:40:48.796Z,2.15
2023-06-30T10:43:16.763Z,1.45
2023-06-30T10:46:08.116Z,1.42
2023-06-30T10:48:37.652Z,1.50
2023-06-30T10:51:06.531Z,1.77
2023-06-30T10:53:37.107Z,1.80
2023-06-30T10:56:05.394Z,1.40
2023-06-30T10:58:41.860Z,1.70
2023-06-30T11:01:09.758Z,1.80
2023-06-30T11:04:14.793Z,1.52
2023-06-30T11:06:47.650Z,1.63
2023-06-30T11:09:16.895Z,1.60
2023-06-30T11:11:51.475Z,1.30
2023-06-30T11:14:33.918Z,1.40
2023-06-30T11:17:06.774Z,1.50
2023-06-30T11:19:37.231Z,1.50
2023-06-30T11:22:23.627Z,1.50
2023-06-30T11:24:53.286Z,1.58
2023-06-30T11:27:21.269Z,1.63
2023-06-30T11:29:51.045Z,1.60
2023-06-30T11:32:19.861Z,1.25
2023-06-30T11:34:47.858Z,1.90
2023-06-30T11:37:15.744Z,1.92
2023-06-30T11:39:53.239Z,1.43
2023-06-30T11:42:21.400Z,1.80
2023-06-30T11:44:51.018Z,2.15
2023-06-30T11:47:20.601Z,1.40
2023-06-30T11:49:49.145Z,1.42
2023-06-30T11:52:18.089Z,1.80
2023-06-30T11:54:46.358Z,1.40
2023-06-30T11:57:15.549Z,1.75
2023-06-30T11:59:43.483Z,1.80
2023-06-30T12:02:14.011Z,1.55
2023-06-30T12:04:49.293Z,1.75
2023-06-30T12:07:17.484Z,1.67
2023-06-30T12:09:47.626Z,1.55
2023-06-30T12:12:28.951Z,1.42
2023-06-30T12:14:57.642Z,1.52
2023-06-30T12:17:28.131Z,1.70
2023-06-30T12:19:56.062Z,1.40
2023-06-30T12:22:28.581Z,1.70
2023-06-30T12:24:57.272Z,1.50
2023-06-30T12:27:27.308Z,1.50
2023-06-30T12:29:56.876Z,1.42
2023-06-30T12:32:28.972Z,2.53
2023-06-30T12:35:04.146Z,1.38
2023-06-30T12:37:33.178Z,1.48
2023-06-30T12:40:01.072Z,1.60
2023-06-30T12:42:32.180Z,1.80
2023-06-30T12:45:01.425Z,2.00
2023-06-30T12:47:29.322Z,2.00
2023-06-30T12:49:57.359Z,1.67
2023-06-30T12:52:25.316Z,1.70
2023-06-30T12:54:54.344Z,1.90
2023-06-30T12:57:22.377Z,1.63
2023-06-30T12:59:50.342Z,1.75
2023-06-30T13:02:19.679Z,2.20
2023-06-30T13:04:47.537Z,1.40
2023-06-30T13:07:15.480Z,1.57
2023-06-30T13:09:43.355Z,1.50
2023-06-30T13:12:11.752Z,1.60
2023-06-30T13:14:39.700Z,1.70
2023-06-30T13:17:08.061Z,1.50
2023-06-30T13:19:37.454Z,1.52
2023-06-30T13:22:05.525Z,1.60
2023-06-30T13:24:33.662Z,1.55
2023-06-30T13:27:01.681Z,1.55
2023-06-30T13:29:29.613Z,1.73
2023-06-30T13:31:57.561Z,1.57
2023-06-30T13:34:25.536Z,1.63
2023-06-30T13:36:54.817Z,1.97
2023-06-30T13:39:22.763Z,2.00
2023-06-30T13:41:50.922Z,1.80
2023-06-30T13:44:18.868Z,1.67
2023-06-30T13:46:46.801Z,2.30
2023-06-30T13:49:14.949Z,2.00
2023-06-30T13:51:43.564Z,1.70
2023-06-30T13:54:12.808Z,1.60
2023-06-30T13:56:40.710Z,1.50
2023-06-30T13:59:08.601Z,1.87
2023-06-30T14:01:37.645Z,1.70
2023-06-30T14:04:05.934Z,1.80
2023-06-30T14:06:33.852Z,1.80
2023-06-30T14:09:01.774Z,1.70
2023-06-30T14:11:31.125Z,2.10
2023-06-30T14:14:04.345Z,2.00
2023-06-30T14:16:32.635Z,1.63
2023-06-30T14:19:00.564Z,2.22
2023-06-30T14:21:29.286Z,1.70
2023-06-30T14:23:58.033Z,1.80
2023-06-30T14:26:27.180Z,1.83
2023-06-30T14:28:56.729Z,1.60
2023-06-30T14:31:24.743Z,2.20
2023-06-30T14:33:52.689Z,2.47
2023-06-30T14:36:20.513Z,1.67
2023-06-30T14:38:48.448Z,1.92
2023-06-30T14:41:16.373Z,2.13
2023-06-30T14:43:44.278Z,2.10
2023-06-30T14:46:13.511Z,1.55
2023-06-30T14:48:42.193Z,1.63
2023-06-30T14:51:10.219Z,1.70
2023-06-30T14:53:38.074Z,1.97
2023-06-30T14:56:06.524Z,1.50
2023-06-30T14:58:34.491Z,1.67
2023-06-30T15:01:02.380Z,1.80
2023-06-30T15:03:31.668Z,1.88
2023-06-30T15:05:59.639Z,1.70
2023-06-30T15:08:27.491Z,1.73
2023-06-30T15:10:55.378Z,1.80
2023-06-30T15:13:23.294Z,1.90
2023-06-30T15:15:51.964Z,1.90
2023-06-30T15:18:19.871Z,1.42
2023-06-30T15:20:49.084Z,1.67
2023-06-30T15:23:16.984Z,1.60
2023-06-30T15:25:45.233Z,1.70
2023-06-30T15:28:13.387Z,1.45
2023-06-30T15:30:41.195Z,1.63
2023-06-30T15:33:09.868Z,1.60
2023-06-30T15:35:38.357Z,1.88
2023-06-30T15:38:07.740Z,1.40
2023-06-30T15:40:35.684Z,2.10
2023-06-30T15:43:05.011Z,1.80
2023-06-30T15:45:33.193Z,1.83
2023-06-30T15:48:01.135Z,1.80
2023-06-30T15:50:29.052Z,1.73
2023-06-30T15:52:56.945Z,1.80
2023-06-30T15:55:26.229Z,1.90
2023-06-30T15:57:57.199Z,2.00
2023-06-30T16:00:25.279Z,1.98
2023-06-30T16:02:55.589Z,2.13
2023-06-30T16:05:24.132Z,1.85
2023-06-30T16:07:52.241Z,2.03
2023-06-30T16:10:20.232Z,1.83
2023-06-30T16:12:49.541Z,1.50
2023-06-30T16:15:17.439Z,1.80
2023-06-30T16:17:45.417Z,1.77
2023-06-30T16:20:13.870Z,1.48
2023-06-30T16:22:41.763Z,1.63
2023-06-30T16:25:10.385Z,1.60
2023-06-30T16:27:38.352Z,1.73
2023-06-30T16:30:26.774Z,1.40
2023-06-30T16:32:58.093Z,1.77
2023-06-30T16:35:26.654Z,1.50
2023-06-30T16:37:54.928Z,1.83
2023-06-30T16:40:23.337Z,1.73
2023-06-30T16:42:51.600Z,1.60
2023-06-30T16:45:19.626Z,1.70
2023-06-30T16:47:48.991Z,2.00
2023-06-30T16:50:17.928Z,1.50
2023-06-30T16:52:46.267Z,1.58
2023-06-30T16:55:14.222Z,1.60
2023-06-30T16:57:44.018Z,1.70
2023-06-30T17:00:13.078Z,1.40
2023-06-30T17:05:11.099Z,1.70
2023-06-30T17:07:39.067Z,1.67
2023-06-30T17:10:07.599Z,1.88
2023-06-30T17:12:35.570Z,1.67
2023-06-30T17:15:03.438Z,1.60
2023-06-30T17:17:31.313Z,1.50
2023-06-30T17:19:59.352Z,1.88
2023-06-30T17:22:28.561Z,1.52
2023-06-30T17:25:04.107Z,1.70
2023-06-30T17:27:33.406Z,1.80
2023-06-30T17:30:01.278Z,1.80
2023-06-30T17:32:29.473Z,1.63
2023-06-30T17:34:57.361Z,1.95
2023-06-30T17:37:25.230Z,1.48
2023-06-30T17:39:54.436Z,1.73
2023-06-30T17:42:22.493Z,1.77
2023-06-30T17:44:50.376Z,1.95
2023-06-30T17:47:18.301Z,1.52
2023-06-30T17:49:46.691Z,1.90
2023-06-30T17:52:15.957Z,1.85
2023-06-30T17:54:43.975Z,1.70
2023-06-30T17:57:14.381Z,1.70
2023-06-30T17:59:42.207Z,1.67
2023-06-30T18:02:10.196Z,1.60
2023-06-30T18:04:38.599Z,1.70
2023-06-30T18:07:11.638Z,1.70
2023-06-30T18:09:41.374Z,1.67
2023-06-30T18:12:10.388Z,1.80
2023-06-30T18:17:07.962Z,1.70
2023-06-30T18:19:35.844Z,1.60
2023-06-30T18:22:03.946Z,1.77
2023-06-30T18:24:31.872Z,1.90
2023-06-30T18:26:59.833Z,1.90
2023-06-30T18:29:27.697Z,1.90
2023-06-30T18:32:00.262Z,1.75
2023-06-30T18:34:28.827Z,1.75
2023-06-30T18:36:56.776Z,1.90
2023-06-30T18:39:24.717Z,1.90
2023-06-30T18:41:52.769Z,2.00
2023-06-30T18:44:20.648Z,1.70
2023-06-30T18:46:48.774Z,2.00
2023-06-30T18:49:18.033Z,1.95
2023-06-30T18:51:45.918Z,1.80
2023-06-30T18:54:13.786Z,1.80
2023-06-30T18:56:41.663Z,1.92
2023-06-30T18:59:09.550Z,1.90
2023-06-30T19:01:37.447Z,1.80
2023-06-30T19:04:06.704Z,1.83
2023-06-30T19:06:36.202Z,2.08
2023-06-30T19:09:04.673Z,2.42
2023-06-30T19:11:32.838Z,1.73
2023-06-30T19:14:00.689Z,2.13
2023-06-30T19:16:28.601Z,1.90
2023-06-30T19:18:58.481Z,1.88
2023-06-30T19:21:26.357Z,1.70
2023-06-30T19:23:59.328Z,2.20
2023-06-30T19:26:27.311Z,2.20
2023-06-30T19:28:55.181Z,2.15
2023-06-30T19:31:23.209Z,2.10
2023-06-30T19:33:51.076Z,2.55
2023-06-30T19:36:19.041Z,2.00
2023-06-30T19:38:46.887Z,2.00
2023-06-30T19:41:16.205Z,2.20
2023-06-30T19:43:44.149Z,2.28
2023-06-30T19:46:12.710Z,2.00
2023-06-30T19:48:42.706Z,2.10
2023-06-30T19:51:10.643Z,1.98
2023-06-30T19:53:38.460Z,2.00
2023-06-30T19:56:06.453Z,1.90
2023-06-30T19:58:35.646Z,2.03
2023-06-30T20:01:04.423Z,1.80
2023-06-30T20:03:32.421Z,1.85
2023-06-30T20:06:00.429Z,2.05
2023-06-30T20:08:28.277Z,2.40
2023-06-30T20:10:56.103Z,2.22
2023-06-30T20:13:24.020Z,2.78
2023-06-30T20:15:53.410Z,2.60
2023-06-30T20:18:21.317Z,2.75
2023-06-30T20:20:49.175Z,3.05
2023-06-30T20:23:17.050Z,2.30
2023-06-30T20:25:45.209Z,2.25
2023-06-30T20:28:13.244Z,2.15
2023-06-30T20:30:41.176Z,2.00
2023-06-30T20:33:10.440Z,1.95
2023-06-30T20:35:38.389Z,2.25
2023-06-30T20:38:06.269Z,1.88
2023-06-30T20:40:34.649Z,2.30
2023-06-30T20:43:02.563Z,2.20
2023-06-30T20:45:31.573Z,2.03
2023-06-30T20:50:29.295Z,2.50
2023-06-30T20:52:57.766Z,2.25
2023-06-30T20:55:25.612Z,2.33
2023-06-30T20:57:53.549Z,2.28
2023-06-30T21:00:21.815Z,2.50
2023-06-30T21:02:49.838Z,2.50
2023-06-30T21:05:17.785Z,2.17
2023-06-30T21:07:47.214Z,2.78
2023-06-30T21:10:16.064Z,2.80
2023-06-30T21:12:44.010Z,2.50
2023-06-30T21:15:12.723Z,2.40
2023-06-30T21:17:40.919Z,2.55
2023-06-30T21:20:09.982Z,2.58
2023-06-30T21:25:07.676Z,2.60
2023-06-30T21:27:35.635Z,2.83
2023-06-30T21:30:03.705Z,2.75
2023-06-30T21:32:31.572Z,2.67
2023-06-30T21:34:59.508Z,2.20
2023-06-30T21:37:27.345Z,2.20
2023-06-30T21:39:55.188Z,2.38
2023-06-30T21:42:24.371Z,2.42
2023-06-30T21:47:20.750Z,2.17
2023-06-30T21:49:48.594Z,2.17
2023-06-30T21:52:16.672Z,2.10
2023-06-30T21:54:48.694Z,2.00
2023-06-30T21:57:17.029Z,2.03
2023-06-30T21:59:46.258Z,2.10
2023-06-30T22:02:14.383Z,1.83
2023-06-30T22:04:42.475Z,2.10
2023-06-30T22:07:10.407Z,2.53
2023-06-30T22:09:38.282Z,2.42
2023-06-30T22:12:07.631Z,2.08
2023-06-30T22:14:36.893Z,1.83
2023-06-30T22:17:06.749Z,1.92
2023-06-30T22:19:37.935Z,2.05
2023-06-30T22:22:06.548Z,2.08
2023-06-30T22:24:34.406Z,1.92
2023-06-30T22:27:02.252Z,1.98
2023-06-30T22:29:30.139Z,2.10
2023-06-30T22:31:57.951Z,2.00
2023-06-30T22:34:27.572Z,1.92
2023-06-30T22:36:55.423Z,2.00
2023-06-30T22:39:23.281Z,1.88
2023-06-30T22:41:51.245Z,1.75
2023-06-30T22:44:19.143Z,2.05
2023-06-30T22:46:47.028Z,1.70
2023-06-30T22:49:14.972Z,1.60
2023-06-30T22:51:44.160Z,1.75
2023-06-30T22:56:39.852Z,1.98
2023-06-30T22:59:07.731Z,1.90
2023-06-30T23:01:35.664Z,1.90
2023-06-30T23:04:03.651Z,2.10
2023-06-30T23:06:32.217Z,2.00
2023-06-30T23:09:02.840Z,1.80
2023-06-30T23:11:30.809Z,1.77
2023-06-30T23:13:58.797Z,2.00
2023-06-30T23:16:26.716Z,2.05
2023-06-30T23:18:54.618Z,1.98
2023-06-30T23:21:22.579Z,1.92
2023-06-30T23:23:50.494Z,1.50
2023-06-30T23:26:25.086Z,1.70
2023-06-30T23:28:54.174Z,2.03
2023-06-30T23:31:22.545Z,1.95
2023-06-30T23:33:53.299Z,1.73
2023-06-30T23:36:21.775Z,1.65
2023-06-30T23:38:49.646Z,2.07
2023-06-30T23:41:18.851Z,2.25
2023-06-30T23:46:19.668Z,2.15
2023-06-30T23:48:48.323Z,1.73
2023-06-30T23:51:16.149Z,1.80
2023-06-30T23:53:44.014Z,1.80
2023-06-30T23:56:12.022Z,1.75
2023-06-30T23:58:41.268Z,2.30
